Time;durP1;ratioP1;P1;durP2;ratioP2;P2;SDS_P1;SDS_P2;PMS_P1;PMS_P2;Temp;Humidity;BMP_temperature;BMP_pressure;BME280_temperature;BME280_humidity;BME280_pressure;Samples;Min_cycle;Max_cycle;Signal;HPM_P1;HPM_P2
2023/01/02 00:01:22;;;;;;;17.53;13.87;;;;;;;;;;5112847;28;20618;-81
2023/01/02 00:03:52;;;;;;;17.93;13.23;;;;;;;;;;5107113;28;20243;-81
2023/01/02 00:06:18;;;;;;;15.67;11.40;;;;;;;;;;5074125;28;20219;-81
2023/01/02 00:08:45;;;;;;;10.50;7.93;;;;;;;;;;5084169;28;20212;-80
2023/01/02 00:11:12;;;;;;;8.80;6.80;;;;;;;;;;5091960;28;20568;-80
2023/01/02 00:13:39;;;;;;;8.73;7.50;;;;;;;;;;5080381;28;20725;-80
2023/01/02 00:16:07;;;;;;;7.87;6.57;;;;;;;;;;5090368;28;20216;-81
2023/01/02 00:18:36;;;;;;;9.03;6.40;;;;;;;;;;5086750;28;20636;-80
2023/01/02 00:21:04;;;;;;;8.50;7.43;;;;;;;;;;5112325;28;20196;-81
2023/01/02 00:23:31;;;;;;;8.70;7.80;;;;;;;;;;5112392;28;20678;-80
2023/01/02 00:25:58;;;;;;;8.73;7.73;;;;;;;;;;5112267;28;20279;-80
2023/01/02 00:28:25;;;;;;;10.97;7.87;;;;;;;;;;5112370;28;20191;-81
2023/01/02 00:30:52;;;;;;;9.03;7.87;;;;;;;;;;5085735;28;20635;-80
2023/01/02 00:33:19;;;;;;;7.47;6.50;;;;;;;;;;5111447;28;20230;-81
2023/01/02 00:35:48;;;;;;;13.07;10.00;;;;;;;;;;5091863;28;20695;-80
2023/01/02 00:38:15;;;;;;;18.07;12.67;;;;;;;;;;5071434;28;20201;-80
2023/01/02 00:40:41;;;;;;;14.47;9.30;;;;;;;;;;5091761;28;20199;-80
2023/01/02 00:43:08;;;;;;;21.53;16.10;;;;;;;;;;5091802;28;20641;-80
2023/01/02 00:45:35;;;;;;;14.07;10.60;;;;;;;;;;5111702;28;20206;-80
2023/01/02 00:48:02;;;;;;;13.60;9.50;;;;;;;;;;5095253;28;20212;-82
2023/01/02 00:50:28;;;;;;;9.70;7.83;;;;;;;;;;5079551;28;20282;-80
2023/01/02 00:52:57;;;;;;;10.60;7.13;;;;;;;;;;5092099;28;20224;-80
2023/01/02 00:55:23;;;;;;;8.40;7.60;;;;;;;;;;5091326;28;20200;-80
2023/01/02 00:57:50;;;;;;;8.17;6.60;;;;;;;;;;5077743;28;20599;-81
2023/01/02 01:00:17;;;;;;;7.60;6.13;;;;;;;;;;5092111;28;20193;-80
2023/01/02 01:02:45;;;;;;;7.37;6.17;;;;;;;;;;5059950;28;20256;-80
2023/01/02 01:05:12;;;;;;;7.83;6.27;;;;;;;;;;5081830;28;20225;-80
2023/01/02 01:07:39;;;;;;;8.33;6.50;;;;;;;;;;5101348;28;20603;-80
2023/01/02 01:10:08;;;;;;;6.00;5.43;;;;;;;;;;5072560;28;20304;-81
2023/01/02 01:12:35;;;;;;;8.70;6.57;;;;;;;;;;5091634;28;20250;-80
2023/01/02 01:15:02;;;;;;;7.87;5.80;;;;;;;;;;5069754;28;20209;-80
2023/01/02 01:17:29;;;;;;;8.13;7.13;;;;;;;;;;5087756;28;20196;-81
2023/01/02 01:19:55;;;;;;;7.77;5.87;;;;;;;;;;5091030;28;20205;-81
2023/01/02 01:22:22;;;;;;;10.50;8.97;;;;;;;;;;5090839;28;20197;-80
2023/01/02 01:24:49;;;;;;;10.33;7.83;;;;;;;;;;5080260;28;20193;-81
2023/01/02 01:27:17;;;;;;;11.23;7.27;;;;;;;;;;5070940;28;20206;-81
2023/01/02 01:29:44;;;;;;;10.87;7.47;;;;;;;;;;5079161;28;20201;-81
2023/01/02 01:32:11;;;;;;;11.43;9.57;;;;;;;;;;5088696;28;20706;-80
2023/01/02 01:34:38;;;;;;;10.60;8.83;;;;;;;;;;5090923;28;20220;-81
2023/01/02 01:37:05;;;;;;;10.77;9.33;;;;;;;;;;5085589;28;20205;-81
2023/01/02 01:39:32;;;;;;;10.13;8.70;;;;;;;;;;5082331;28;20208;-81
2023/01/02 01:41:59;;;;;;;14.30;11.20;;;;;;;;;;5090597;28;20249;-80
2023/01/02 01:44:44;;;;;;;15.40;10.93;;;;;;;;;;5078383;28;20258;-81
2023/01/02 01:47:23;;;;;;;27.97;20.23;;;;;;;;;;5079012;28;20200;-80
2023/01/02 01:49:52;;;;;;;20.53;14.07;;;;;;;;;;5086431;28;20296;-82
2023/01/02 01:52:21;;;;;;;14.70;11.10;;;;;;;;;;5081189;28;20208;-80
2023/01/02 01:54:52;;;;;;;8.33;7.23;;;;;;;;;;5090198;28;21573;-80
2023/01/02 01:57:22;;;;;;;14.90;8.63;;;;;;;;;;5073049;28;20195;-80
2023/01/02 01:59:51;;;;;;;7.70;6.00;;;;;;;;;;5071157;28;20205;-81
2023/01/02 02:02:18;;;;;;;9.43;6.60;;;;;;;;;;5077720;28;20252;-81
2023/01/02 02:04:46;;;;;;;6.30;5.57;;;;;;;;;;5096792;28;20226;-81
2023/01/02 02:07:13;;;;;;;8.03;6.77;;;;;;;;;;5072255;28;20236;-81
2023/01/02 02:09:43;;;;;;;11.37;8.53;;;;;;;;;;5086130;28;20200;-80
2023/01/02 02:12:10;;;;;;;8.40;6.33;;;;;;;;;;5090889;28;20204;-81
2023/01/02 02:14:37;;;;;;;7.33;6.47;;;;;;;;;;5084422;28;20228;-80
2023/01/02 02:17:10;;;;;;;9.27;7.47;;;;;;;;;;5076519;28;20197;-80
2023/01/02 02:19:51;;;;;;;9.77;7.30;;;;;;;;;;5055851;28;20313;-80
2023/01/02 02:22:44;;;;;;;10.07;6.87;;;;;;;;;;5108160;28;20608;-81
2023/01/02 02:25:38;;;;;;;9.77;7.53;;;;;;;;;;5093411;28;20260;-81
2023/01/02 02:28:32;;;;;;;8.77;7.70;;;;;;;;;;5093947;28;20211;-80
2023/01/02 02:31:04;;;;;;;9.70;7.20;;;;;;;;;;5084591;28;20199;-80
2023/01/02 02:33:38;;;;;;;9.20;7.43;;;;;;;;;;5064864;28;20264;-80
2023/01/02 02:36:14;;;;;;;7.77;6.27;;;;;;;;;;5091984;28;20618;-81
2023/01/02 02:38:51;;;;;;;7.73;6.63;;;;;;;;;;5062305;28;20621;-80
2023/01/02 02:41:29;;;;;;;14.13;10.27;;;;;;;;;;5110048;28;20682;-80
2023/01/02 02:44:04;;;;;;;7.97;6.67;;;;;;;;;;5077657;28;20204;-81
2023/01/02 02:46:38;;;;;;;7.23;6.57;;;;;;;;;;5088256;28;20216;-81
2023/01/02 02:49:08;;;;;;;8.83;6.47;;;;;;;;;;5089803;28;20199;-81
2023/01/02 02:51:39;;;;;;;7.43;5.87;;;;;;;;;;5071363;28;20208;-81
2023/01/02 02:54:10;;;;;;;6.53;5.10;;;;;;;;;;5071643;28;20289;-80
2023/01/02 02:56:38;;;;;;;7.80;6.43;;;;;;;;;;5089749;28;20204;-81
2023/01/02 02:59:05;;;;;;;6.73;5.73;;;;;;;;;;5071935;28;20208;-80
2023/01/02 03:01:34;;;;;;;10.90;7.80;;;;;;;;;;5063534;28;20204;-81
2023/01/02 03:04:00;;;;;;;7.27;5.60;;;;;;;;;;5079962;28;20265;-81
2023/01/02 03:06:41;;;;;;;9.60;6.73;;;;;;;;;;5109368;28;20196;-81
2023/01/02 03:09:14;;;;;;;7.00;5.67;;;;;;;;;;5080436;28;20275;-80
2023/01/02 03:11:48;;;;;;;6.70;6.00;;;;;;;;;;5087222;28;20646;-80
2023/01/02 03:14:22;;;;;;;6.33;5.03;;;;;;;;;;5106569;28;20214;-80
2023/01/02 03:16:55;;;;;;;7.73;6.07;;;;;;;;;;5113806;28;20199;-80
2023/01/02 03:19:28;;;;;;;6.23;5.63;;;;;;;;;;5075660;28;20737;-81
2023/01/02 03:21:57;;;;;;;6.93;5.83;;;;;;;;;;5099204;28;20268;-80
2023/01/02 03:24:26;;;;;;;6.47;5.80;;;;;;;;;;5113864;28;20211;-80
2023/01/02 03:26:57;;;;;;;6.97;6.27;;;;;;;;;;5113581;28;20624;-81
2023/01/02 03:29:30;;;;;;;10.87;9.77;;;;;;;;;;5113812;28;20256;-80
2023/01/02 03:32:01;;;;;;;9.60;8.10;;;;;;;;;;5096899;28;20281;-84
2023/01/02 03:34:32;;;;;;;10.47;7.80;;;;;;;;;;5083014;28;20278;-81
2023/01/02 03:37:03;;;;;;;8.53;7.77;;;;;;;;;;5072153;28;20206;-80
2023/01/02 03:39:33;;;;;;;7.33;6.57;;;;;;;;;;5081683;28;20201;-80
2023/01/02 03:42:03;;;;;;;8.73;7.17;;;;;;;;;;5091451;28;20207;-80
2023/01/02 03:44:35;;;;;;;9.57;6.90;;;;;;;;;;5105110;28;20218;-81
2023/01/02 03:47:09;;;;;;;13.57;11.20;;;;;;;;;;5081285;28;20199;-81
2023/01/02 03:49:39;;;;;;;9.03;8.10;;;;;;;;;;5081056;28;20203;-81
2023/01/02 03:52:05;;;;;;;8.57;6.03;;;;;;;;;;5112842;28;20204;-80
2023/01/02 03:54:33;;;;;;;8.27;6.60;;;;;;;;;;5110909;28;20223;-82
2023/01/02 03:57:02;;;;;;;7.93;6.47;;;;;;;;;;5082654;28;20746;-81
2023/01/02 03:59:39;;;;;;;5.43;4.83;;;;;;;;;;5068075;28;20247;-81
2023/01/02 04:02:11;;;;;;;5.23;4.73;;;;;;;;;;5094700;28;20601;-80
2023/01/02 04:04:44;;;;;;;6.27;5.67;;;;;;;;;;5085642;28;20227;-81
2023/01/02 04:07:14;;;;;;;6.67;5.97;;;;;;;;;;5095572;28;20649;-80
2023/01/02 04:09:41;;;;;;;7.87;7.07;;;;;;;;;;5077840;28;20738;-80
2023/01/02 04:12:11;;;;;;;7.03;6.20;;;;;;;;;;5092034;28;20273;-81
2023/01/02 04:14:41;;;;;;;7.40;5.70;;;;;;;;;;5078467;28;20220;-80
2023/01/02 04:17:11;;;;;;;6.40;5.77;;;;;;;;;;5087619;28;20265;-81
2023/01/02 04:19:42;;;;;;;7.47;5.70;;;;;;;;;;5104018;28;20559;-81
2023/01/02 04:22:14;;;;;;;9.87;6.10;;;;;;;;;;5091790;28;20261;-80
2023/01/02 04:24:43;;;;;;;9.03;5.90;;;;;;;;;;5073921;28;20208;-81
2023/01/02 04:27:14;;;;;;;7.00;5.77;;;;;;;;;;5091701;28;20265;-80
2023/01/02 04:29:41;;;;;;;10.13;7.10;;;;;;;;;;5092053;28;20207;-81
2023/01/02 04:32:12;;;;;;;10.20;8.87;;;;;;;;;;5074046;28;20636;-81
2023/01/02 04:34:40;;;;;;;10.57;8.90;;;;;;;;;;5061825;28;20623;-80
2023/01/02 04:37:07;;;;;;;58.37;36.93;;;;;;;;;;5090387;28;20199;-80
2023/01/02 04:39:35;;;;;;;16.53;11.57;;;;;;;;;;5092099;28;20624;-81
2023/01/02 04:42:02;;;;;;;10.83;8.30;;;;;;;;;;5068006;28;20213;-80
2023/01/02 04:44:28;;;;;;;8.97;6.73;;;;;;;;;;5084507;28;20208;-80
2023/01/02 04:46:55;;;;;;;8.40;7.03;;;;;;;;;;5111795;28;20191;-81
2023/01/02 04:49:25;;;;;;;7.60;6.83;;;;;;;;;;5111986;28;20203;-81
2023/01/02 04:51:52;;;;;;;61.23;31.73;;;;;;;;;;5097987;28;20581;-80
2023/01/02 04:54:18;;;;;;;39.57;25.00;;;;;;;;;;5111607;28;20269;-83
2023/01/02 04:56:45;;;;;;;22.47;14.60;;;;;;;;;;5090007;28;20249;-80
2023/01/02 04:59:12;;;;;;;11.47;8.97;;;;;;;;;;5073443;28;20231;-80
2023/01/02 05:01:39;;;;;;;7.30;6.13;;;;;;;;;;5078536;28;20207;-81
2023/01/02 05:04:06;;;;;;;7.67;6.67;;;;;;;;;;5091481;28;20235;-81
2023/01/02 05:06:34;;;;;;;7.93;6.13;;;;;;;;;;5080240;28;20272;-80
2023/01/02 05:09:01;;;;;;;7.83;6.10;;;;;;;;;;5110996;28;20215;-81
2023/01/02 05:11:28;;;;;;;7.50;5.80;;;;;;;;;;5091252;28;20203;-81
2023/01/02 05:13:54;;;;;;;5.97;5.47;;;;;;;;;;5086909;28;20207;-82
2023/01/02 05:16:21;;;;;;;7.27;5.97;;;;;;;;;;5072644;28;20216;-81
2023/01/02 05:18:51;;;;;;;10.27;8.33;;;;;;;;;;5086702;28;20212;-80
2023/01/02 05:24:04;;;;;;;20.07;14.03;;;;;;;;;;5105035;28;20380;-81
2023/01/02 05:26:31;;;;;;;14.00;12.00;;;;;;;;;;5085287;28;20203;-82
2023/01/02 05:28:59;;;;;;;86.00;44.20;;;;;;;;;;5083001;28;20280;-82
2023/01/02 05:31:26;;;;;;;134.03;70.83;;;;;;;;;;5099330;28;20222;-81
2023/01/02 05:33:54;;;;;;;85.67;47.60;;;;;;;;;;5100686;28;20667;-82
2023/01/02 05:36:21;;;;;;;30.10;17.20;;;;;;;;;;5070511;28;20205;-81
2023/01/02 05:38:48;;;;;;;121.47;64.70;;;;;;;;;;5058851;28;20658;-81
2023/01/02 05:41:17;;;;;;;128.07;62.13;;;;;;;;;;5090355;28;20211;-82
2023/01/02 05:43:43;;;;;;;32.93;21.50;;;;;;;;;;5110444;28;20574;-81
2023/01/02 05:46:12;;;;;;;14.53;9.27;;;;;;;;;;5085284;28;20205;-81
2023/01/02 05:48:40;;;;;;;16.13;12.77;;;;;;;;;;5097921;28;20207;-81
2023/01/02 05:51:09;;;;;;;118.07;58.27;;;;;;;;;;5110836;28;20199;-82
2023/01/02 05:53:36;;;;;;;111.93;61.80;;;;;;;;;;5093150;28;20258;-82
2023/01/02 05:56:05;;;;;;;65.73;35.47;;;;;;;;;;5086824;28;20242;-81
2023/01/02 05:58:37;;;;;;;23.77;15.73;;;;;;;;;;5089930;28;20208;-82
2023/01/02 06:01:05;;;;;;;15.93;11.43;;;;;;;;;;5095703;28;20200;-81
2023/01/02 06:03:33;;;;;;;16.13;10.77;;;;;;;;;;5098393;28;20254;-82
2023/01/02 06:06:03;;;;;;;15.13;10.53;;;;;;;;;;5077616;28;20200;-82
2023/01/02 06:08:30;;;;;;;22.27;12.97;;;;;;;;;;5102826;28;20227;-82
2023/01/02 06:10:57;;;;;;;17.03;13.57;;;;;;;;;;5090334;28;20266;-85
2023/01/02 06:13:23;;;;;;;13.33;10.70;;;;;;;;;;5088913;28;20208;-80
2023/01/02 06:15:54;;;;;;;10.97;8.70;;;;;;;;;;5102682;28;20228;-79
2023/01/02 06:18:20;;;;;;;7.93;6.27;;;;;;;;;;5071472;28;20200;-80
2023/01/02 06:20:47;;;;;;;8.00;6.80;;;;;;;;;;5085061;28;20253;-81
2023/01/02 06:23:15;;;;;;;7.93;6.30;;;;;;;;;;5105242;28;20678;-81
2023/01/02 06:25:43;;;;;;;7.07;5.77;;;;;;;;;;5109874;28;20199;-79
2023/01/02 06:28:10;;;;;;;6.57;5.93;;;;;;;;;;5091482;28;20261;-80
2023/01/02 06:30:37;;;;;;;5.40;4.90;;;;;;;;;;5109870;28;20199;-80
2023/01/02 06:33:05;;;;;;;6.70;5.27;;;;;;;;;;5110240;28;20200;-80
2023/01/02 06:35:32;;;;;;;6.33;5.67;;;;;;;;;;5098541;28;20250;-80
2023/01/02 06:37:59;;;;;;;6.53;5.77;;;;;;;;;;5089195;28;20253;-81
2023/01/02 06:40:26;;;;;;;6.20;5.60;;;;;;;;;;5087580;28;20243;-79
2023/01/02 06:42:53;;;;;;;7.57;6.53;;;;;;;;;;5092936;28;20632;-81
2023/01/02 06:45:22;;;;;;;6.77;6.03;;;;;;;;;;5080202;28;20265;-80
2023/01/02 06:47:49;;;;;;;8.43;6.13;;;;;;;;;;5107212;28;20196;-82
2023/01/02 06:50:17;;;;;;;6.57;5.77;;;;;;;;;;5101868;28;20682;-80
2023/01/02 06:52:45;;;;;;;5.93;5.37;;;;;;;;;;5114467;28;20199;-80
2023/01/02 06:55:12;;;;;;;7.40;5.67;;;;;;;;;;5114089;28;20239;-80
2023/01/02 06:57:39;;;;;;;8.07;6.03;;;;;;;;;;5114321;28;20599;-80
2023/01/02 07:00:07;;;;;;;8.90;6.67;;;;;;;;;;5105232;28;20624;-79
2023/01/02 07:02:34;;;;;;;10.40;6.00;;;;;;;;;;5098541;28;20713;-80
2023/01/02 07:05:01;;;;;;;6.10;5.50;;;;;;;;;;5101173;28;20304;-80
2023/01/02 07:07:29;;;;;;;7.43;5.93;;;;;;;;;;5096686;28;20857;-84
2023/01/02 07:09:56;;;;;;;6.80;5.53;;;;;;;;;;5087190;28;20196;-80
2023/01/02 07:12:22;;;;;;;9.37;5.83;;;;;;;;;;5109358;28;20238;-80
2023/01/02 07:14:49;;;;;;;7.67;6.40;;;;;;;;;;5095499;28;20763;-81
2023/01/02 07:17:16;;;;;;;8.47;6.97;;;;;;;;;;5092902;28;20253;-82
2023/01/02 07:19:43;;;;;;;9.73;6.47;;;;;;;;;;5095815;28;20215;-82
2023/01/02 07:22:10;;;;;;;7.00;6.30;;;;;;;;;;5086580;28;20269;-82
2023/01/02 07:24:38;;;;;;;7.37;6.50;;;;;;;;;;5085295;28;20197;-82
2023/01/02 07:27:05;;;;;;;8.13;6.47;;;;;;;;;;5080584;28;20254;-83
2023/01/02 07:29:31;;;;;;;9.37;7.70;;;;;;;;;;5092827;28;20204;-82
2023/01/02 07:31:58;;;;;;;18.33;12.63;;;;;;;;;;5106269;28;20667;-83
2023/01/02 07:34:25;;;;;;;10.43;9.27;;;;;;;;;;5083523;28;20197;-82
2023/01/02 07:36:52;;;;;;;12.80;9.90;;;;;;;;;;5076381;28;20586;-83
2023/01/02 07:39:19;;;;;;;16.37;11.13;;;;;;;;;;5102975;28;20638;-82
2023/01/02 07:41:47;;;;;;;14.83;9.47;;;;;;;;;;5096105;28;20289;-82
2023/01/02 07:44:14;;;;;;;9.97;8.83;;;;;;;;;;5074523;28;20211;-82
2023/01/02 07:46:41;;;;;;;12.80;9.80;;;;;;;;;;5079151;28;20567;-82
2023/01/02 07:49:07;;;;;;;14.00;9.63;;;;;;;;;;5093123;28;20567;-82
2023/01/02 07:51:34;;;;;;;13.70;9.93;;;;;;;;;;5092676;28;20596;-83
2023/01/02 07:54:01;;;;;;;8.67;7.70;;;;;;;;;;5093381;28;20223;-82
2023/01/02 07:56:28;;;;;;;10.37;8.10;;;;;;;;;;5092754;28;20224;-84
2023/01/02 07:58:56;;;;;;;9.00;7.90;;;;;;;;;;5091925;28;20204;-85
2023/01/02 08:01:23;;;;;;;8.77;7.73;;;;;;;;;;5074847;28;20204;-82
2023/01/02 08:03:50;;;;;;;8.33;7.53;;;;;;;;;;5074705;28;20289;-80
2023/01/02 08:06:18;;;;;;;11.40;9.30;;;;;;;;;;5092463;28;20216;-79
2023/01/02 08:08:45;;;;;;;13.53;10.43;;;;;;;;;;5092491;28;20693;-79
2023/01/02 08:11:14;;;;;;;13.73;11.43;;;;;;;;;;5092093;28;20201;-78
2023/01/02 08:13:41;;;;;;;15.03;11.93;;;;;;;;;;5091312;28;20249;-79
2023/01/02 08:16:12;;;;;;;16.47;13.30;;;;;;;;;;5077447;28;20580;-79
2023/01/02 08:18:39;;;;;;;16.23;12.30;;;;;;;;;;5090066;28;20261;-78
2023/01/02 08:21:08;;;;;;;14.73;13.00;;;;;;;;;;5091089;28;20208;-78
2023/01/02 08:23:35;;;;;;;17.50;13.67;;;;;;;;;;5090940;28;20223;-79
2023/01/02 08:26:04;;;;;;;14.00;12.13;;;;;;;;;;5081819;28;20205;-78
2023/01/02 08:28:31;;;;;;;15.93;12.53;;;;;;;;;;5082116;28;20209;-76
2023/01/02 08:30:59;;;;;;;15.77;12.43;;;;;;;;;;5082451;28;20197;-76
2023/01/02 08:33:27;;;;;;;13.87;10.73;;;;;;;;;;5091755;28;20197;-77
2023/01/02 08:35:55;;;;;;;12.97;10.03;;;;;;;;;;5091506;28;20639;-75
2023/01/02 08:38:22;;;;;;;12.67;9.47;;;;;;;;;;5090506;28;20200;-79
2023/01/02 08:40:48;;;;;;;10.10;8.47;;;;;;;;;;5091351;28;20233;-78
2023/01/02 08:43:15;;;;;;;10.07;8.40;;;;;;;;;;5091141;28;20209;-76
2023/01/02 08:45:42;;;;;;;9.47;7.67;;;;;;;;;;5091046;28;20207;-76
2023/01/02 08:48:09;;;;;;;7.67;6.70;;;;;;;;;;5091301;28;20211;-76
2023/01/02 08:50:37;;;;;;;7.13;6.07;;;;;;;;;;5090747;28;20196;-76
2023/01/02 08:53:04;;;;;;;7.30;6.60;;;;;;;;;;5090922;28;20200;-75
2023/01/02 08:55:32;;;;;;;8.57;6.80;;;;;;;;;;5091325;28;20227;-77
2023/01/02 08:57:58;;;;;;;10.47;7.63;;;;;;;;;;5092804;28;20699;-77
2023/01/02 09:00:25;;;;;;;10.90;9.03;;;;;;;;;;5096419;28;20268;-78
2023/01/02 09:02:53;;;;;;;8.37;7.17;;;;;;;;;;5106463;28;20198;-78
2023/01/02 09:05:20;;;;;;;10.17;7.40;;;;;;;;;;5089689;28;20232;-77
2023/01/02 09:07:48;;;;;;;8.10;7.27;;;;;;;;;;5104160;28;20199;-78
2023/01/02 09:10:15;;;;;;;9.70;7.50;;;;;;;;;;5098059;28;20207;-78
2023/01/02 09:12:42;;;;;;;9.27;7.27;;;;;;;;;;5096577;28;20216;-78
2023/01/02 09:15:09;;;;;;;9.27;7.10;;;;;;;;;;5110829;28;20769;-78
2023/01/02 09:17:36;;;;;;;10.07;7.10;;;;;;;;;;5111070;28;20252;-78
2023/01/02 09:20:03;;;;;;;10.60;7.47;;;;;;;;;;5110608;28;20206;-78
2023/01/02 09:22:30;;;;;;;9.90;7.37;;;;;;;;;;5108739;28;20230;-78
2023/01/02 09:24:58;;;;;;;7.73;6.60;;;;;;;;;;5110545;28;20217;-78
2023/01/02 09:27:25;;;;;;;9.43;6.83;;;;;;;;;;5090449;28;20621;-78
2023/01/02 09:29:52;;;;;;;8.20;7.37;;;;;;;;;;5085980;28;20262;-78
2023/01/02 09:32:19;;;;;;;11.17;8.10;;;;;;;;;;5091046;28;20208;-78
2023/01/02 09:34:49;;;;;;;12.10;7.87;;;;;;;;;;5090281;28;20265;-78
2023/01/02 09:37:16;;;;;;;11.03;8.47;;;;;;;;;;5090624;28;20272;-78
2023/01/02 09:39:45;;;;;;;10.57;9.03;;;;;;;;;;5090802;28;20253;-78
2023/01/02 09:42:15;;;;;;;16.67;9.30;;;;;;;;;;5077538;28;20650;-78
2023/01/02 09:44:45;;;;;;;16.77;9.63;;;;;;;;;;5091519;28;20273;-78
2023/01/02 09:47:14;;;;;;;14.60;10.10;;;;;;;;;;5110858;28;20211;-78
2023/01/02 09:49:44;;;;;;;13.00;10.57;;;;;;;;;;5110469;28;20199;-78
2023/01/02 09:52:15;;;;;;;18.03;8.83;;;;;;;;;;5110045;28;20203;-78
2023/01/02 09:54:42;;;;;;;10.40;9.07;;;;;;;;;;5110352;28;20195;-78
2023/01/02 09:57:25;;;;;;;11.10;9.10;;;;;;;;;;5108786;28;20223;-80
2023/01/02 09:59:57;;;;;;;11.67;9.20;;;;;;;;;;5095726;28;20200;-78
2023/01/02 10:02:35;;;;;;;9.77;8.30;;;;;;;;;;5103422;28;20203;-78
2023/01/02 10:05:18;;;;;;;10.83;9.27;;;;;;;;;;5099304;28;20970;-77
2023/01/02 10:07:50;;;;;;;11.43;9.53;;;;;;;;;;5090974;28;20208;-78
2023/01/02 10:10:24;;;;;;;11.63;9.47;;;;;;;;;;5101099;28;20206;-78
2023/01/02 10:12:59;;;;;;;14.50;9.83;;;;;;;;;;5108863;28;20205;-78
2023/01/02 10:15:28;;;;;;;12.87;10.67;;;;;;;;;;5108508;28;20638;-79
2023/01/02 10:17:58;;;;;;;15.70;11.00;;;;;;;;;;5087669;28;20207;-78
2023/01/02 10:20:28;;;;;;;18.33;14.67;;;;;;;;;;5103839;28;20207;-78
2023/01/02 10:22:57;;;;;;;12.87;10.63;;;;;;;;;;5089056;28;20793;-78
2023/01/02 10:25:27;;;;;;;12.40;11.13;;;;;;;;;;5091219;28;20204;-78
2023/01/02 10:27:59;;;;;;;11.60;10.23;;;;;;;;;;5086665;28;20682;-78
2023/01/02 10:30:27;;;;;;;21.27;11.77;;;;;;;;;;5090232;28;20200;-78
2023/01/02 10:32:58;;;;;;;15.03;11.20;;;;;;;;;;5089091;28;20738;-78
2023/01/02 10:35:37;;;;;;;17.87;13.20;;;;;;;;;;5095336;28;20192;-78
2023/01/02 10:38:05;;;;;;;14.53;11.43;;;;;;;;;;5111620;28;20203;-78
2023/01/02 10:40:32;;;;;;;15.47;12.00;;;;;;;;;;5082732;28;20667;-78
2023/01/02 10:43:01;;;;;;;11.77;9.60;;;;;;;;;;5070894;28;20691;-80
2023/01/02 10:45:29;;;;;;;12.27;9.03;;;;;;;;;;5101831;28;20588;-78
2023/01/02 10:47:56;;;;;;;11.03;9.90;;;;;;;;;;5114007;28;20201;-78
2023/01/02 10:50:26;;;;;;;10.57;8.87;;;;;;;;;;5114054;28;20210;-78
2023/01/02 10:53:07;;;;;;;12.20;9.70;;;;;;;;;;5096532;28;20254;-78
2023/01/02 10:55:38;;;;;;;13.90;11.27;;;;;;;;;;5097087;28;20670;-78
2023/01/02 10:58:16;;;;;;;15.17;11.43;;;;;;;;;;5067665;28;20208;-78
2023/01/02 11:00:45;;;;;;;14.20;11.03;;;;;;;;;;5093111;28;20257;-79
2023/01/02 11:03:15;;;;;;;13.60;11.17;;;;;;;;;;5109512;28;20291;-78
2023/01/02 11:05:47;;;;;;;16.67;12.73;;;;;;;;;;5093813;28;20291;-78
2023/01/02 11:08:16;;;;;;;13.53;12.13;;;;;;;;;;5093144;28;20713;-79
2023/01/02 11:10:43;;;;;;;13.57;10.07;;;;;;;;;;5092616;28;20201;-79
2023/01/02 11:13:13;;;;;;;12.30;10.30;;;;;;;;;;5093165;28;20229;-79
2023/01/02 11:15:47;;;;;;;10.33;9.00;;;;;;;;;;5090220;28;20582;-79
2023/01/02 11:18:20;;;;;;;11.90;10.33;;;;;;;;;;5093077;28;20216;-77
2023/01/02 11:20:49;;;;;;;11.27;8.70;;;;;;;;;;5087438;28;20259;-77
2023/01/02 11:23:17;;;;;;;13.10;9.93;;;;;;;;;;5109777;28;20199;-77
2023/01/02 11:25:47;;;;;;;11.40;9.43;;;;;;;;;;5107184;28;20311;-78
2023/01/02 11:28:18;;;;;;;18.13;14.10;;;;;;;;;;5094576;28;20283;-77
2023/01/02 11:30:46;;;;;;;11.37;10.27;;;;;;;;;;5112578;28;20427;-78
2023/01/02 11:33:20;;;;;;;37.30;24.03;;;;;;;;;;5080841;28;20684;-80
2023/01/02 11:35:49;;;;;;;18.97;16.27;;;;;;;;;;5082590;28;20755;-80
2023/01/02 11:38:17;;;;;;;16.13;13.13;;;;;;;;;;5082521;28;20584;-80
2023/01/02 11:40:54;;;;;;;15.70;13.10;;;;;;;;;;5080935;28;20205;-80
2023/01/02 11:46:15;;;;;;;26.67;20.60;;;;;;;;;;5092515;28;20217;-80
2023/01/02 11:48:42;;;;;;;16.73;13.67;;;;;;;;;;5075741;28;20629;-80
2023/01/02 11:51:16;;;;;;;18.23;16.27;;;;;;;;;;5113183;28;20210;-80
2023/01/02 11:53:46;;;;;;;14.47;12.97;;;;;;;;;;5086871;28;20289;-80
2023/01/02 11:56:19;;;;;;;19.20;16.63;;;;;;;;;;5089564;28;20308;-81
2023/01/02 11:58:58;;;;;;;16.90;13.13;;;;;;;;;;5092488;28;20268;-80
2023/01/02 12:01:28;;;;;;;23.67;17.77;;;;;;;;;;5088597;28;20691;-80
2023/01/02 12:03:55;;;;;;;20.63;18.40;;;;;;;;;;5102578;28;20235;-80
2023/01/02 12:06:24;;;;;;;23.13;19.43;;;;;;;;;;5112949;28;20235;-81
2023/01/02 12:09:03;;;;;;;15.77;14.03;;;;;;;;;;5077789;28;20206;-81
2023/01/02 12:11:49;;;;;;;17.97;14.40;;;;;;;;;;5112688;28;20184;-79
2023/01/02 12:14:20;;;;;;;20.33;16.30;;;;;;;;;;5091189;28;20213;-80
2023/01/02 12:16:56;;;;;;;17.17;13.90;;;;;;;;;;5082868;28;20237;-80
2023/01/02 12:19:45;;;;;;;24.07;19.50;;;;;;;;;;5073439;28;20262;-80
2023/01/02 12:22:45;;;;;;;26.43;21.93;;;;;;;;;;5074043;28;20208;-81
2023/01/02 12:25:42;;;;;;;32.00;22.73;;;;;;;;;;5087920;28;20681;-81
2023/01/02 12:28:25;;;;;;;22.27;17.07;;;;;;;;;;5092159;28;20202;-80
2023/01/02 12:31:00;;;;;;;19.70;16.10;;;;;;;;;;5098029;28;20205;-80
2023/01/02 12:33:38;;;;;;;14.50;13.00;;;;;;;;;;5085955;28;20689;-81
2023/01/02 12:36:26;;;;;;;22.63;17.83;;;;;;;;;;5100786;28;20197;-81
2023/01/02 12:39:09;;;;;;;24.70;20.40;;;;;;;;;;5079054;28;20200;-81
2023/01/02 12:41:42;;;;;;;21.63;15.60;;;;;;;;;;5086006;28;20207;-81
2023/01/02 12:44:17;;;;;;;23.80;16.00;;;;;;;;;;5091407;28;20253;-81
2023/01/02 12:47:00;;;;;;;23.03;16.90;;;;;;;;;;5073458;28;20207;-81
2023/01/02 12:49:41;;;;;;;21.47;15.87;;;;;;;;;;5056234;28;20197;-81
2023/01/02 12:52:13;;;;;;;15.67;13.27;;;;;;;;;;5089146;28;20642;-80
2023/01/02 12:54:50;;;;;;;14.07;12.43;;;;;;;;;;5078244;28;20201;-81
2023/01/02 12:57:27;;;;;;;48.33;29.87;;;;;;;;;;5090463;28;20223;-80
2023/01/02 13:00:22;;;;;;;21.00;13.50;;;;;;;;;;5109677;28;20204;-80
2023/01/02 13:03:04;;;;;;;16.90;14.60;;;;;;;;;;5061031;28;20204;-81
2023/01/02 13:05:35;;;;;;;17.70;13.60;;;;;;;;;;5093227;28;20788;-81
2023/01/02 13:08:05;;;;;;;15.23;12.90;;;;;;;;;;5076777;28;20212;-81
2023/01/02 13:10:32;;;;;;;19.17;14.77;;;;;;;;;;5092109;28;20205;-80
2023/01/02 13:13:00;;;;;;;19.87;13.40;;;;;;;;;;5090904;28;20212;-81
2023/01/02 13:15:29;;;;;;;16.20;12.90;;;;;;;;;;5090762;28;20204;-80
2023/01/02 13:18:03;;;;;;;64.17;33.60;;;;;;;;;;5087999;28;20612;-80
2023/01/02 13:20:39;;;;;;;79.17;29.20;;;;;;;;;;5091236;28;20667;-80
2023/01/02 13:23:19;;;;;;;41.23;27.10;;;;;;;;;;5090329;28;20202;-81
2023/01/02 13:25:48;;;;;;;19.10;16.03;;;;;;;;;;5077985;28;21158;-81
2023/01/02 13:28:16;;;;;;;19.07;16.33;;;;;;;;;;5091038;28;20200;-80
2023/01/02 13:30:56;;;;;;;30.80;23.17;;;;;;;;;;5090352;28;20198;-81
2023/01/02 13:33:31;;;;;;;22.37;18.47;;;;;;;;;;5079697;28;20205;-81
2023/01/02 13:36:01;;;;;;;16.63;12.97;;;;;;;;;;5110779;28;20205;-81
2023/01/02 13:38:29;;;;;;;34.70;27.47;;;;;;;;;;5092249;28;20233;-81
2023/01/02 13:40:58;;;;;;;17.63;14.93;;;;;;;;;;5103550;28;20207;-81
2023/01/02 13:43:29;;;;;;;22.83;17.30;;;;;;;;;;5089317;28;20276;-81
2023/01/02 13:45:57;;;;;;;20.40;16.23;;;;;;;;;;5084749;28;20205;-81
2023/01/02 13:48:32;;;;;;;16.73;14.67;;;;;;;;;;5101823;28;20192;-81
2023/01/02 13:51:01;;;;;;;18.20;16.27;;;;;;;;;;5081521;28;20207;-81
2023/01/02 13:53:38;;;;;;;17.13;13.10;;;;;;;;;;5101232;28;20207;-81
2023/01/02 13:56:07;;;;;;;15.53;12.37;;;;;;;;;;5089473;28;20210;-81
2023/01/02 13:58:53;;;;;;;14.33;12.83;;;;;;;;;;5089454;28;20228;-81
2023/01/02 14:01:40;;;;;;;15.73;11.87;;;;;;;;;;5088326;28;21402;-82
2023/01/02 14:04:38;;;;;;;16.43;12.63;;;;;;;;;;5091351;28;20406;-82
2023/01/02 14:07:38;;;;;;;18.23;15.17;;;;;;;;;;5074314;28;20623;-83
2023/01/02 14:10:45;;;;;;;23.20;20.20;;;;;;;;;;5081201;28;20209;-81
2023/01/02 14:13:23;;;;;;;18.83;14.37;;;;;;;;;;5088651;28;20559;-82
2023/01/02 14:16:10;;;;;;;22.07;18.03;;;;;;;;;;5070806;28;20200;-81
2023/01/02 14:18:37;;;;;;;19.90;17.17;;;;;;;;;;5087780;28;20219;-81
2023/01/02 14:21:07;;;;;;;22.67;17.87;;;;;;;;;;5083884;28;20630;-81
2023/01/02 14:23:39;;;;;;;16.97;14.03;;;;;;;;;;5084014;28;20252;-82
2023/01/02 14:26:19;;;;;;;36.17;23.47;;;;;;;;;;5078429;28;20208;-82
2023/01/02 14:28:52;;;;;;;102.00;55.43;;;;;;;;;;5089065;28;20211;-81
2023/01/02 14:31:28;;;;;;;85.00;50.10;;;;;;;;;;5096513;28;20214;-82
2023/01/02 14:33:56;;;;;;;68.77;44.27;;;;;;;;;;5086875;28;20238;-80
2023/01/02 14:36:35;;;;;;;52.50;38.10;;;;;;;;;;5096403;28;20670;-79
2023/01/02 14:39:02;;;;;;;45.47;33.07;;;;;;;;;;5102960;28;20261;-79
2023/01/02 14:44:53;;;;;;;23.47;17.63;;;;;;;;;;5077627;28;20727;-81
2023/01/02 14:47:25;;;;;;;32.60;24.03;;;;;;;;;;5089575;28;20240;-81
2023/01/02 14:49:57;;;;;;;30.03;23.70;;;;;;;;;;5073612;28;20254;-81
2023/01/02 14:52:29;;;;;;;23.30;16.37;;;;;;;;;;5088499;28;20250;-81
2023/01/02 14:54:57;;;;;;;16.97;13.50;;;;;;;;;;5089436;28;20201;-80
2023/01/02 14:57:27;;;;;;;24.00;16.07;;;;;;;;;;5089615;28;20224;-81